sensor_id;sensor_type;location;lat;lon;timestamp;P1;durP1;ratioP1;P2;durP2;ratioP2
11098;SDS011;12223;42.650;23.364;2024-02-15T09:07:50;12.25;;;5.60;;
11098;SDS011;12223;42.650;23.364;2024-02-15T09:10:16;11.10;;;6.78;;
11098;SDS011;12223;42.650;23.364;2024-02-15T09:12:47;12.77;;;7.80;;
11098;SDS011;12223;42.650;23.364;2024-02-15T09:15:13;11.00;;;4.82;;
11098;SDS011;12223;42.650;23.364;2024-02-15T09:17:39;9.55;;;4.95;;
11098;SDS011;12223;42.650;23.364;2024-02-15T09:22:32;12.00;;;5.30;;
11098;SDS011;12223;42.650;23.364;2024-02-15T09:24:57;16.65;;;6.30;;
11098;SDS011;12223;42.650;23.364;2024-02-15T09:27:23;11.48;;;5.90;;
11098;SDS011;12223;42.650;23.364;2024-02-15T09:29:48;11.85;;;5.43;;
11098;SDS011;12223;42.650;23.364;2024-02-15T09:32:13;12.32;;;8.82;;
11098;SDS011;12223;42.650;23.364;2024-02-15T09:34:39;12.80;;;7.55;;
11098;SDS011;12223;42.650;23.364;2024-02-15T09:37:05;14.77;;;7.35;;
11098;SDS011;12223;42.650;23.364;2024-02-15T09:39:30;12.85;;;5.15;;
11098;SDS011;12223;42.650;23.364;2024-02-15T09:41:56;8.95;;;5.03;;
11098;SDS011;12223;42.650;23.364;2024-02-15T09:44:24;14.45;;;6.82;;
11098;SDS011;12223;42.650;23.364;2024-02-15T09:47:03;11.00;;;4.93;;
11098;SDS011;12223;42.650;23.364;2024-02-15T09:49:33;13.57;;;8.23;;
11098;SDS011;12223;42.650;23.364;2024-02-15T09:52:04;11.27;;;6.43;;
11098;SDS011;12223;42.650;23.364;2024-02-15T09:54:37;8.82;;;4.63;;
11098;SDS011;12223;42.650;23.364;2024-02-15T09:57:04;8.88;;;5.80;;
11098;SDS011;12223;42.650;23.364;2024-02-15T09:59:30;12.68;;;5.72;;
11098;SDS011;12223;42.650;23.364;2024-02-15T10:01:58;10.93;;;5.78;;
11098;SDS011;12223;42.650;23.364;2024-02-15T10:04:24;11.27;;;7.95;;
11098;SDS011;12223;42.650;23.364;2024-02-15T10:06:50;14.40;;;6.32;;
11098;SDS011;12223;42.650;23.364;2024-02-15T10:09:31;10.88;;;5.30;;
11098;SDS011;12223;42.650;23.364;2024-02-15T10:11:57;12.82;;;5.25;;
11098;SDS011;12223;42.650;23.364;2024-02-15T10:14:24;14.73;;;4.43;;
11098;SDS011;12223;42.650;23.364;2024-02-15T10:16:51;12.40;;;4.53;;
11098;SDS011;12223;42.650;23.364;2024-02-15T10:19:20;9.95;;;3.75;;
11098;SDS011;12223;42.650;23.364;2024-02-15T10:22:05;12.55;;;4.85;;
11098;SDS011;12223;42.650;23.364;2024-02-15T10:24:31;13.50;;;5.72;;
11098;SDS011;12223;42.650;23.364;2024-02-15T10:27:00;9.60;;;4.88;;
11098;SDS011;12223;42.650;23.364;2024-02-15T10:29:29;14.52;;;8.20;;
11098;SDS011;12223;42.650;23.364;2024-02-15T10:32:00;10.57;;;5.47;;
11098;SDS011;12223;42.650;23.364;2024-02-15T10:34:27;13.00;;;4.97;;
11098;SDS011;12223;42.650;23.364;2024-02-15T10:36:54;9.73;;;4.68;;
11098;SDS011;12223;42.650;23.364;2024-02-15T10:39:22;9.32;;;4.18;;
11098;SDS011;12223;42.650;23.364;2024-02-15T10:41:52;9.52;;;4.95;;
11098;SDS011;12223;42.650;23.364;2024-02-15T10:44:22;6.15;;;3.00;;
11098;SDS011;12223;42.650;23.364;2024-02-15T10:49:20;10.80;;;4.32;;
11098;SDS011;12223;42.650;23.364;2024-02-15T10:51:55;10.25;;;5.00;;
11098;SDS011;12223;42.650;23.364;2024-02-15T10:54:27;12.55;;;5.07;;
11098;SDS011;12223;42.650;23.364;2024-02-15T10:57:03;14.13;;;5.28;;
11098;SDS011;12223;42.650;23.364;2024-02-15T10:59:31;8.13;;;4.85;;
11098;SDS011;12223;42.650;23.364;2024-02-15T11:02:01;11.30;;;5.00;;
11098;SDS011;12223;42.650;23.364;2024-02-15T11:04:45;10.68;;;4.60;;
11098;SDS011;12223;42.650;23.364;2024-02-15T11:07:19;9.75;;;5.25;;
11098;SDS011;12223;42.650;23.364;2024-02-15T11:09:46;12.60;;;5.07;;
11098;SDS011;12223;42.650;23.364;2024-02-15T11:12:12;12.30;;;4.72;;
11098;SDS011;12223;42.650;23.364;2024-02-15T11:14:38;9.70;;;5.32;;
11098;SDS011;12223;42.650;23.364;2024-02-15T11:17:09;9.30;;;4.32;;
11098;SDS011;12223;42.650;23.364;2024-02-15T11:22:09;12.68;;;3.95;;
11098;SDS011;12223;42.650;23.364;2024-02-15T11:24:37;7.95;;;4.00;;
11098;SDS011;12223;42.650;23.364;2024-02-15T11:27:10;9.18;;;4.97;;
11098;SDS011;12223;42.650;23.364;2024-02-15T11:35:12;7.20;;;4.60;;
11098;SDS011;12223;42.650;23.364;2024-02-15T11:40:27;8.60;;;3.70;;
11098;SDS011;12223;42.650;23.364;2024-02-15T11:43:06;9.23;;;4.78;;
11098;SDS011;12223;42.650;23.364;2024-02-15T11:45:33;9.30;;;4.22;;
11098;SDS011;12223;42.650;23.364;2024-02-15T11:48:04;8.27;;;4.65;;
11098;SDS011;12223;42.650;23.364;2024-02-15T11:50:35;7.53;;;3.90;;
11098;SDS011;12223;42.650;23.364;2024-02-15T11:53:03;7.90;;;4.45;;
11098;SDS011;12223;42.650;23.364;2024-02-15T11:55:31;13.98;;;4.72;;
11098;SDS011;12223;42.650;23.364;2024-02-15T11:58:01;8.60;;;4.15;;
11098;SDS011;12223;42.650;23.364;2024-02-15T12:00:29;9.40;;;3.80;;
11098;SDS011;12223;42.650;23.364;2024-02-15T12:03:14;12.80;;;3.58;;
11098;SDS011;12223;42.650;23.364;2024-02-15T12:05:59;10.55;;;4.35;;
11098;SDS011;12223;42.650;23.364;2024-02-15T12:08:44;12.15;;;4.15;;
11098;SDS011;12223;42.650;23.364;2024-02-15T12:11:28;7.47;;;3.70;;
11098;SDS011;12223;42.650;23.364;2024-02-15T12:14:13;10.63;;;3.95;;
11098;SDS011;12223;42.650;23.364;2024-02-15T12:17:07;10.35;;;3.80;;
11098;SDS011;12223;42.650;23.364;2024-02-15T12:19:55;12.00;;;4.70;;
11098;SDS011;12223;42.650;23.364;2024-02-15T12:22:32;13.00;;;4.53;;
11098;SDS011;12223;42.650;23.364;2024-02-15T12:25:03;8.32;;;3.78;;
11098;SDS011;12223;42.650;23.364;2024-02-15T12:27:39;9.65;;;4.20;;
11098;SDS011;12223;42.650;23.364;2024-02-15T12:30:08;8.00;;;3.58;;
11098;SDS011;12223;42.650;23.364;2024-02-15T12:32:38;7.00;;;4.43;;
11098;SDS011;12223;42.650;23.364;2024-02-15T12:35:11;9.25;;;3.63;;
11098;SDS011;12223;42.650;23.364;2024-02-15T12:37:40;12.32;;;4.45;;
11098;SDS011;12223;42.650;23.364;2024-02-15T12:42:44;8.85;;;3.72;;
11098;SDS011;12223;42.650;23.364;2024-02-15T12:45:15;7.13;;;3.80;;
11098;SDS011;12223;42.650;23.364;2024-02-15T12:47:48;7.93;;;4.22;;
11098;SDS011;12223;42.650;23.364;2024-02-15T12:50:18;7.18;;;4.25;;
11098;SDS011;12223;42.650;23.364;2024-02-15T12:52:46;5.30;;;3.17;;
11098;SDS011;12223;42.650;23.364;2024-02-15T12:55:16;7.53;;;4.30;;
11098;SDS011;12223;42.650;23.364;2024-02-15T12:57:45;13.00;;;4.43;;
11098;SDS011;12223;42.650;23.364;2024-02-15T13:02:46;7.93;;;3.90;;
11098;SDS011;12223;42.650;23.364;2024-02-15T13:05:14;7.15;;;3.40;;
11098;SDS011;12223;42.650;23.364;2024-02-15T13:07:47;8.40;;;3.92;;
11098;SDS011;12223;42.650;23.364;2024-02-15T13:10:13;6.40;;;3.58;;
11098;SDS011;12223;42.650;23.364;2024-02-15T13:12:40;6.32;;;4.03;;
11098;SDS011;12223;42.650;23.364;2024-02-15T13:15:06;7.55;;;3.28;;
11098;SDS011;12223;42.650;23.364;2024-02-15T13:17:36;9.00;;;4.22;;
11098;SDS011;12223;42.650;23.364;2024-02-15T13:20:02;4.97;;;3.10;;
11098;SDS011;12223;42.650;23.364;2024-02-15T13:22:36;8.15;;;4.22;;
11098;SDS011;12223;42.650;23.364;2024-02-15T13:25:03;10.95;;;3.45;;
11098;SDS011;12223;42.650;23.364;2024-02-15T13:27:33;6.13;;;3.05;;
11098;SDS011;12223;42.650;23.364;2024-02-15T13:29:59;7.50;;;4.70;;
11098;SDS011;12223;42.650;23.364;2024-02-15T13:32:25;8.60;;;4.28;;
11098;SDS011;12223;42.650;23.364;2024-02-15T13:34:51;8.82;;;3.90;;
11098;SDS011;12223;42.650;23.364;2024-02-15T13:37:20;6.43;;;3.63;;
11098;SDS011;12223;42.650;23.364;2024-02-15T13:39:47;7.85;;;3.65;;
11098;SDS011;12223;42.650;23.364;2024-02-15T13:42:13;6.43;;;3.45;;
11098;SDS011;12223;42.650;23.364;2024-02-15T13:44:38;6.75;;;3.58;;
11098;SDS011;12223;42.650;23.364;2024-02-15T13:47:03;7.70;;;4.45;;
11098;SDS011;12223;42.650;23.364;2024-02-15T13:49:30;6.65;;;4.57;;
11098;SDS011;12223;42.650;23.364;2024-02-15T13:51:57;5.70;;;3.72;;
11098;SDS011;12223;42.650;23.364;2024-02-15T13:54:27;6.53;;;3.38;;
11098;SDS011;12223;42.650;23.364;2024-02-15T13:56:53;8.25;;;3.80;;
11098;SDS011;12223;42.650;23.364;2024-02-15T13:59:19;7.47;;;4.70;;
11098;SDS011;12223;42.650;23.364;2024-02-15T14:01:44;6.07;;;3.22;;
11098;SDS011;12223;42.650;23.364;2024-02-15T14:04:11;5.63;;;4.30;;
11098;SDS011;12223;42.650;23.364;2024-02-15T14:06:37;5.53;;;2.80;;
11098;SDS011;12223;42.650;23.364;2024-02-15T14:09:05;5.07;;;3.05;;
11098;SDS011;12223;42.650;23.364;2024-02-15T14:11:31;8.18;;;3.85;;
11098;SDS011;12223;42.650;23.364;2024-02-15T14:13:56;8.65;;;4.03;;
11098;SDS011;12223;42.650;23.364;2024-02-15T14:16:23;7.38;;;3.83;;
11098;SDS011;12223;42.650;23.364;2024-02-15T14:18:49;9.02;;;3.15;;
11098;SDS011;12223;42.650;23.364;2024-02-15T14:21:16;8.20;;;3.47;;
11098;SDS011;12223;42.650;23.364;2024-02-15T14:23:43;12.05;;;4.78;;
11098;SDS011;12223;42.650;23.364;2024-02-15T14:26:09;6.35;;;4.28;;
11098;SDS011;12223;42.650;23.364;2024-02-15T14:28:35;6.28;;;3.47;;
11098;SDS011;12223;42.650;23.364;2024-02-15T14:31:00;5.72;;;3.17;;
11098;SDS011;12223;42.650;23.364;2024-02-15T14:33:45;8.65;;;4.10;;
11098;SDS011;12223;42.650;23.364;2024-02-15T14:36:10;8.25;;;3.45;;
11098;SDS011;12223;42.650;23.364;2024-02-15T14:38:36;9.50;;;3.88;;
11098;SDS011;12223;42.650;23.364;2024-02-15T14:41:02;6.55;;;3.15;;
11098;SDS011;12223;42.650;23.364;2024-02-15T14:43:31;8.88;;;3.45;;
11098;SDS011;12223;42.650;23.364;2024-02-15T14:45:56;9.07;;;4.00;;
11098;SDS011;12223;42.650;23.364;2024-02-15T14:48:22;8.73;;;4.32;;
11098;SDS011;12223;42.650;23.364;2024-02-15T14:50:49;8.15;;;4.13;;
11098;SDS011;12223;42.650;23.364;2024-02-15T14:53:15;9.00;;;3.83;;
11098;SDS011;12223;42.650;23.364;2024-02-15T14:55:41;8.30;;;4.30;;
11098;SDS011;12223;42.650;23.364;2024-02-15T14:58:11;6.50;;;4.07;;
11098;SDS011;12223;42.650;23.364;2024-02-15T15:00:37;9.82;;;3.75;;
11098;SDS011;12223;42.650;23.364;2024-02-15T15:03:04;8.65;;;3.90;;
11098;SDS011;12223;42.650;23.364;2024-02-15T15:05:30;7.15;;;3.70;;
11098;SDS011;12223;42.650;23.364;2024-02-15T15:08:15;7.97;;;3.60;;
11098;SDS011;12223;42.650;23.364;2024-02-15T15:10:59;6.22;;;3.28;;
11098;SDS011;12223;42.650;23.364;2024-02-15T15:13:43;7.07;;;4.20;;
11098;SDS011;12223;42.650;23.364;2024-02-15T15:16:08;6.78;;;3.92;;
11098;SDS011;12223;42.650;23.364;2024-02-15T15:18:39;12.57;;;3.95;;
11098;SDS011;12223;42.650;23.364;2024-02-15T15:21:05;8.70;;;3.80;;
11098;SDS011;12223;42.650;23.364;2024-02-15T15:23:30;10.70;;;3.45;;
11098;SDS011;12223;42.650;23.364;2024-02-15T15:25:58;9.60;;;3.60;;
11098;SDS011;12223;42.650;23.364;2024-02-15T15:28:27;9.35;;;4.57;;
11098;SDS011;12223;42.650;23.364;2024-02-15T15:30:53;6.85;;;3.67;;
11098;SDS011;12223;42.650;23.364;2024-02-15T15:33:19;13.00;;;4.43;;
11098;SDS011;12223;42.650;23.364;2024-02-15T15:35:45;10.13;;;4.43;;
11098;SDS011;12223;42.650;23.364;2024-02-15T15:38:11;12.30;;;4.50;;
11098;SDS011;12223;42.650;23.364;2024-02-15T15:40:37;13.90;;;5.20;;
11098;SDS011;12223;42.650;23.364;2024-02-15T15:43:03;9.02;;;4.65;;
11098;SDS011;12223;42.650;23.364;2024-02-15T15:45:30;10.73;;;4.63;;
11098;SDS011;12223;42.650;23.364;2024-02-15T15:47:55;10.20;;;6.00;;
11098;SDS011;12223;42.650;23.364;2024-02-15T15:50:21;9.10;;;4.63;;
11098;SDS011;12223;42.650;23.364;2024-02-15T15:52:46;8.35;;;4.47;;
11098;SDS011;12223;42.650;23.364;2024-02-15T15:55:13;9.45;;;5.13;;
11098;SDS011;12223;42.650;23.364;2024-02-15T15:57:39;8.88;;;4.22;;
11098;SDS011;12223;42.650;23.364;2024-02-15T16:00:11;10.07;;;4.70;;
11098;SDS011;12223;42.650;23.364;2024-02-15T16:02:44;7.45;;;3.90;;
11098;SDS011;12223;42.650;23.364;2024-02-15T16:05:13;9.05;;;4.15;;
11098;SDS011;12223;42.650;23.364;2024-02-15T16:07:43;8.70;;;4.65;;
11098;SDS011;12223;42.650;23.364;2024-02-15T16:10:10;15.73;;;5.32;;
11098;SDS011;12223;42.650;23.364;2024-02-15T16:12:36;14.27;;;5.05;;
11098;SDS011;12223;42.650;23.364;2024-02-15T16:15:06;6.32;;;3.67;;
11098;SDS011;12223;42.650;23.364;2024-02-15T16:17:34;10.23;;;3.30;;
11098;SDS011;12223;42.650;23.364;2024-02-15T16:20:04;6.53;;;3.95;;
11098;SDS011;12223;42.650;23.364;2024-02-15T16:22:38;6.88;;;3.10;;
11098;SDS011;12223;42.650;23.364;2024-02-15T16:25:05;10.50;;;3.65;;
11098;SDS011;12223;42.650;23.364;2024-02-15T16:27:32;7.40;;;3.15;;
11098;SDS011;12223;42.650;23.364;2024-02-15T16:29:58;17.95;;;4.97;;
11098;SDS011;12223;42.650;23.364;2024-02-15T16:32:23;9.52;;;3.42;;
11098;SDS011;12223;42.650;23.364;2024-02-15T16:34:49;7.43;;;3.50;;
11098;SDS011;12223;42.650;23.364;2024-02-15T16:37:14;10.48;;;3.60;;
11098;SDS011;12223;42.650;23.364;2024-02-15T16:39:39;8.00;;;3.58;;
11098;SDS011;12223;42.650;23.364;2024-02-15T16:42:07;8.88;;;4.05;;
11098;SDS011;12223;42.650;23.364;2024-02-15T16:44:32;7.47;;;3.72;;
11098;SDS011;12223;42.650;23.364;2024-02-15T16:46:58;7.93;;;3.72;;
11098;SDS011;12223;42.650;23.364;2024-02-15T16:49:23;7.90;;;3.53;;
11098;SDS011;12223;42.650;23.364;2024-02-15T16:51:50;5.20;;;2.33;;
11098;SDS011;12223;42.650;23.364;2024-02-15T16:54:15;10.27;;;3.80;;
11098;SDS011;12223;42.650;23.364;2024-02-15T16:56:41;5.82;;;2.88;;
11098;SDS011;12223;42.650;23.364;2024-02-15T16:59:07;7.22;;;3.47;;
11098;SDS011;12223;42.650;23.364;2024-02-15T17:01:36;8.57;;;3.38;;
11098;SDS011;12223;42.650;23.364;2024-02-15T17:04:03;10.60;;;6.65;;
11098;SDS011;12223;42.650;23.364;2024-02-15T17:06:31;7.65;;;3.22;;
11098;SDS011;12223;42.650;23.364;2024-02-15T17:08:56;11.38;;;4.47;;
11098;SDS011;12223;42.650;23.364;2024-02-15T17:11:22;6.90;;;3.53;;
11098;SDS011;12223;42.650;23.364;2024-02-15T17:13:48;11.05;;;3.80;;
11098;SDS011;12223;42.650;23.364;2024-02-15T17:16:16;13.82;;;4.28;;
11098;SDS011;12223;42.650;23.364;2024-02-15T17:18:44;9.43;;;3.90;;
11098;SDS011;12223;42.650;23.364;2024-02-15T17:21:09;14.18;;;5.22;;
11098;SDS011;12223;42.650;23.364;2024-02-15T17:23:35;10.98;;;4.88;;
11098;SDS011;12223;42.650;23.364;2024-02-15T17:26:00;14.38;;;7.05;;
11098;SDS011;12223;42.650;23.364;2024-02-15T17:28:26;12.77;;;6.05;;
11098;SDS011;12223;42.650;23.364;2024-02-15T17:30:52;17.63;;;7.30;;
11098;SDS011;12223;42.650;23.364;2024-02-15T17:33:18;19.30;;;6.43;;
11098;SDS011;12223;42.650;23.364;2024-02-15T17:35:44;12.57;;;6.28;;
11098;SDS011;12223;42.650;23.364;2024-02-15T17:38:10;12.68;;;6.93;;
11098;SDS011;12223;42.650;23.364;2024-02-15T17:40:36;17.17;;;7.43;;
11098;SDS011;12223;42.650;23.364;2024-02-15T17:45:32;14.65;;;7.07;;
11098;SDS011;12223;42.650;23.364;2024-02-15T17:47:58;14.23;;;6.20;;
11098;SDS011;12223;42.650;23.364;2024-02-15T17:50:23;12.93;;;5.80;;
11098;SDS011;12223;42.650;23.364;2024-02-15T17:52:51;11.80;;;6.50;;
11098;SDS011;12223;42.650;23.364;2024-02-15T17:55:17;12.32;;;7.88;;
11098;SDS011;12223;42.650;23.364;2024-02-15T17:57:42;12.65;;;4.78;;
11098;SDS011;12223;42.650;23.364;2024-02-15T18:00:11;14.25;;;6.15;;
11098;SDS011;12223;42.650;23.364;2024-02-15T18:02:41;12.80;;;5.57;;
11098;SDS011;12223;42.650;23.364;2024-02-15T18:05:09;12.90;;;5.95;;
11098;SDS011;12223;42.650;23.364;2024-02-15T18:07:36;13.80;;;5.72;;
11098;SDS011;12223;42.650;23.364;2024-02-15T18:10:03;9.02;;;4.78;;
11098;SDS011;12223;42.650;23.364;2024-02-15T18:12:31;9.13;;;5.13;;
11098;SDS011;12223;42.650;23.364;2024-02-15T18:14:57;17.58;;;6.30;;
11098;SDS011;12223;42.650;23.364;2024-02-15T18:17:22;15.35;;;7.45;;
11098;SDS011;12223;42.650;23.364;2024-02-15T18:19:48;14.90;;;6.70;;
11098;SDS011;12223;42.650;23.364;2024-02-15T18:22:14;12.88;;;6.75;;
11098;SDS011;12223;42.650;23.364;2024-02-15T18:24:41;12.02;;;6.10;;
11098;SDS011;12223;42.650;23.364;2024-02-15T18:27:07;14.68;;;6.35;;
11098;SDS011;12223;42.650;23.364;2024-02-15T18:29:33;11.13;;;5.55;;
11098;SDS011;12223;42.650;23.364;2024-02-15T18:31:58;13.50;;;7.03;;
11098;SDS011;12223;42.650;23.364;2024-02-15T18:34:24;20.52;;;8.95;;
11098;SDS011;12223;42.650;23.364;2024-02-15T18:36:49;11.63;;;6.53;;
11098;SDS011;12223;42.650;23.364;2024-02-15T18:39:15;12.20;;;6.68;;
11098;SDS011;12223;42.650;23.364;2024-02-15T18:41:41;13.82;;;6.47;;
11098;SDS011;12223;42.650;23.364;2024-02-15T18:44:11;11.73;;;5.97;;
11098;SDS011;12223;42.650;23.364;2024-02-15T18:46:36;13.88;;;6.78;;
11098;SDS011;12223;42.650;23.364;2024-02-15T18:49:02;18.55;;;8.07;;
11098;SDS011;12223;42.650;23.364;2024-02-15T18:51:28;18.55;;;8.02;;
11098;SDS011;12223;42.650;23.364;2024-02-15T18:53:53;14.05;;;8.82;;
11098;SDS011;12223;42.650;23.364;2024-02-15T18:56:19;16.70;;;7.80;;
11098;SDS011;12223;42.650;23.364;2024-02-15T18:58:45;15.50;;;7.93;;
11098;SDS011;12223;42.650;23.364;2024-02-15T19:01:11;15.23;;;7.72;;
11098;SDS011;12223;42.650;23.364;2024-02-15T19:03:38;16.88;;;7.78;;
11098;SDS011;12223;42.650;23.364;2024-02-15T19:06:05;18.88;;;8.48;;
11098;SDS011;12223;42.650;23.364;2024-02-15T19:08:31;24.90;;;8.07;;
11098;SDS011;12223;42.650;23.364;2024-02-15T19:10:56;17.45;;;8.80;;
11098;SDS011;12223;42.650;23.364;2024-02-15T19:13:24;18.45;;;7.18;;
11098;SDS011;12223;42.650;23.364;2024-02-15T19:15:51;15.13;;;8.00;;
11098;SDS011;12223;42.650;23.364;2024-02-15T19:18:20;16.88;;;6.80;;
11098;SDS011;12223;42.650;23.364;2024-02-15T19:20:45;19.52;;;8.93;;
11098;SDS011;12223;42.650;23.364;2024-02-15T19:23:11;20.65;;;9.25;;
11098;SDS011;12223;42.650;23.364;2024-02-15T19:25:36;22.85;;;11.70;;
11098;SDS011;12223;42.650;23.364;2024-02-15T19:28:02;21.27;;;9.77;;
11098;SDS011;12223;42.650;23.364;2024-02-15T19:30:30;19.73;;;8.65;;
11098;SDS011;12223;42.650;23.364;2024-02-15T19:32:56;18.13;;;7.93;;
11098;SDS011;12223;42.650;23.364;2024-02-15T19:35:23;17.27;;;8.70;;
11098;SDS011;12223;42.650;23.364;2024-02-15T19:37:49;16.13;;;7.15;;
11098;SDS011;12223;42.650;23.364;2024-02-15T19:40:17;16.90;;;7.90;;
11098;SDS011;12223;42.650;23.364;2024-02-15T19:42:43;20.25;;;8.95;;
11098;SDS011;12223;42.650;23.364;2024-02-15T19:45:10;15.65;;;8.20;;
11098;SDS011;12223;42.650;23.364;2024-02-15T19:47:37;19.08;;;9.07;;
11098;SDS011;12223;42.650;23.364;2024-02-15T19:50:02;15.98;;;8.05;;
11098;SDS011;12223;42.650;23.364;2024-02-15T19:52:28;20.95;;;8.02;;
11098;SDS011;12223;42.650;23.364;2024-02-15T19:54:53;18.42;;;8.88;;
11098;SDS011;12223;42.650;23.364;2024-02-15T19:57:19;16.25;;;8.82;;
11098;SDS011;12223;42.650;23.364;2024-02-15T19:59:45;18.58;;;8.82;;
11098;SDS011;12223;42.650;23.364;2024-02-15T20:02:10;15.98;;;7.50;;
11098;SDS011;12223;42.650;23.364;2024-02-15T20:04:36;16.52;;;7.20;;
11098;SDS011;12223;42.650;23.364;2024-02-15T20:07:02;13.30;;;6.78;;
11098;SDS011;12223;42.650;23.364;2024-02-15T20:09:28;20.23;;;8.27;;
11098;SDS011;12223;42.650;23.364;2024-02-15T20:11:56;17.23;;;8.55;;
11098;SDS011;12223;42.650;23.364;2024-02-15T20:14:24;17.60;;;8.63;;
11098;SDS011;12223;42.650;23.364;2024-02-15T20:19:20;15.23;;;8.10;;
11098;SDS011;12223;42.650;23.364;2024-02-15T20:21:46;18.23;;;8.05;;
11098;SDS011;12223;42.650;23.364;2024-02-15T20:24:12;19.63;;;8.50;;
11098;SDS011;12223;42.650;23.364;2024-02-15T20:26:37;14.63;;;6.97;;
11098;SDS011;12223;42.650;23.364;2024-02-15T20:29:03;21.05;;;8.15;;
11098;SDS011;12223;42.650;23.364;2024-02-15T20:31:29;15.95;;;8.18;;
11098;SDS011;12223;42.650;23.364;2024-02-15T20:33:57;14.85;;;7.43;;
11098;SDS011;12223;42.650;23.364;2024-02-15T20:36:23;16.75;;;7.53;;
11098;SDS011;12223;42.650;23.364;2024-02-15T20:38:49;15.07;;;7.00;;
11098;SDS011;12223;42.650;23.364;2024-02-15T20:41:17;15.27;;;7.30;;
11098;SDS011;12223;42.650;23.364;2024-02-15T20:43:44;12.57;;;6.72;;
11098;SDS011;12223;42.650;23.364;2024-02-15T20:46:10;13.23;;;7.20;;
11098;SDS011;12223;42.650;23.364;2024-02-15T20:48:38;17.48;;;7.03;;
11098;SDS011;12223;42.650;23.364;2024-02-15T20:51:04;15.63;;;7.07;;
11098;SDS011;12223;42.650;23.364;2024-02-15T20:53:29;18.75;;;6.60;;
11098;SDS011;12223;42.650;23.364;2024-02-15T20:55:55;17.58;;;7.70;;
11098;SDS011;12223;42.650;23.364;2024-02-15T20:58:20;19.80;;;7.10;;
11098;SDS011;12223;42.650;23.364;2024-02-15T21:00:46;18.02;;;7.97;;
11098;SDS011;12223;42.650;23.364;2024-02-15T21:03:11;17.02;;;6.25;;
11098;SDS011;12223;42.650;23.364;2024-02-15T21:05:37;18.65;;;6.32;;
11098;SDS011;12223;42.650;23.364;2024-02-15T21:08:03;13.70;;;6.30;;
11098;SDS011;12223;42.650;23.364;2024-02-15T21:10:30;20.20;;;7.45;;
11098;SDS011;12223;42.650;23.364;2024-02-15T21:12:56;17.25;;;7.10;;
11098;SDS011;12223;42.650;23.364;2024-02-15T21:15:21;14.10;;;6.80;;
11098;SDS011;12223;42.650;23.364;2024-02-15T21:17:47;15.13;;;6.88;;
11098;SDS011;12223;42.650;23.364;2024-02-15T21:20:14;19.05;;;7.57;;
11098;SDS011;12223;42.650;23.364;2024-02-15T21:22:43;14.88;;;7.60;;
11098;SDS011;12223;42.650;23.364;2024-02-15T21:25:19;13.00;;;6.03;;
11098;SDS011;12223;42.650;23.364;2024-02-15T21:27:45;13.95;;;5.78;;
11098;SDS011;12223;42.650;23.364;2024-02-15T21:30:13;11.35;;;6.35;;
11098;SDS011;12223;42.650;23.364;2024-02-15T21:32:41;12.85;;;6.32;;
11098;SDS011;12223;42.650;23.364;2024-02-15T21:35:09;16.77;;;7.15;;
11098;SDS011;12223;42.650;23.364;2024-02-15T21:37:34;14.70;;;6.72;;
11098;SDS011;12223;42.650;23.364;2024-02-15T21:40:00;14.43;;;6.25;;
11098;SDS011;12223;42.650;23.364;2024-02-15T21:42:29;8.70;;;5.10;;
11098;SDS011;12223;42.650;23.364;2024-02-15T21:44:56;15.75;;;6.05;;
11098;SDS011;12223;42.650;23.364;2024-02-15T21:47:21;15.20;;;7.65;;
11098;SDS011;12223;42.650;23.364;2024-02-15T21:49:47;15.50;;;7.38;;
11098;SDS011;12223;42.650;23.364;2024-02-15T21:52:13;14.68;;;7.28;;
11098;SDS011;12223;42.650;23.364;2024-02-15T21:54:39;12.77;;;6.15;;
11098;SDS011;12223;42.650;23.364;2024-02-15T21:57:05;14.68;;;6.35;;
11098;SDS011;12223;42.650;23.364;2024-02-15T21:59:37;11.30;;;5.97;;
11098;SDS011;12223;42.650;23.364;2024-02-15T22:02:04;14.18;;;6.75;;
11098;SDS011;12223;42.650;23.364;2024-02-15T22:04:35;14.50;;;6.47;;
11098;SDS011;12223;42.650;23.364;2024-02-15T22:07:01;13.65;;;7.32;;
11098;SDS011;12223;42.650;23.364;2024-02-15T22:09:26;15.15;;;7.78;;
11098;SDS011;12223;42.650;23.364;2024-02-15T22:11:51;13.65;;;6.18;;
11098;SDS011;12223;42.650;23.364;2024-02-15T22:14:17;14.75;;;6.38;;
11098;SDS011;12223;42.650;23.364;2024-02-15T22:16:42;15.85;;;7.78;;
11098;SDS011;12223;42.650;23.364;2024-02-15T22:19:08;21.25;;;7.63;;
11098;SDS011;12223;42.650;23.364;2024-02-15T22:21:34;16.77;;;7.65;;
11098;SDS011;12223;42.650;23.364;2024-02-15T22:24:00;18.10;;;7.57;;
11098;SDS011;12223;42.650;23.364;2024-02-15T22:26:25;16.48;;;7.90;;
11098;SDS011;12223;42.650;23.364;2024-02-15T22:28:51;19.30;;;7.85;;
11098;SDS011;12223;42.650;23.364;2024-02-15T22:31:21;17.33;;;9.48;;
11098;SDS011;12223;42.650;23.364;2024-02-15T22:33:47;17.95;;;8.82;;
11098;SDS011;12223;42.650;23.364;2024-02-15T22:36:19;18.50;;;7.75;;
11098;SDS011;12223;42.650;23.364;2024-02-15T22:38:51;16.88;;;8.68;;
11098;SDS011;12223;42.650;23.364;2024-02-15T22:41:17;13.85;;;6.32;;
11098;SDS011;12223;42.650;23.364;2024-02-15T22:43:43;18.90;;;7.28;;
11098;SDS011;12223;42.650;23.364;2024-02-15T22:46:12;22.52;;;7.57;;
11098;SDS011;12223;42.650;23.364;2024-02-15T22:48:38;13.95;;;5.93;;
11098;SDS011;12223;42.650;23.364;2024-02-15T22:51:04;14.82;;;6.47;;
11098;SDS011;12223;42.650;23.364;2024-02-15T22:53:30;14.68;;;6.75;;
11098;SDS011;12223;42.650;23.364;2024-02-15T22:55:57;10.48;;;6.30;;
11098;SDS011;12223;42.650;23.364;2024-02-15T22:58:23;15.30;;;6.88;;
11098;SDS011;12223;42.650;23.364;2024-02-15T23:00:49;13.93;;;7.07;;
11098;SDS011;12223;42.650;23.364;2024-02-15T23:03:15;17.10;;;6.47;;
11098;SDS011;12223;42.650;23.364;2024-02-15T23:05:41;15.95;;;7.05;;
11098;SDS011;12223;42.650;23.364;2024-02-15T23:08:07;17.13;;;6.70;;
11098;SDS011;12223;42.650;23.364;2024-02-15T23:10:33;14.10;;;7.65;;
11098;SDS011;12223;42.650;23.364;2024-02-15T23:12:59;11.48;;;6.00;;
11098;SDS011;12223;42.650;23.364;2024-02-15T23:15:25;18.70;;;7.20;;
11098;SDS011;12223;42.650;23.364;2024-02-15T23:17:51;22.73;;;7.18;;
11098;SDS011;12223;42.650;23.364;2024-02-15T23:20:16;25.00;;;7.72;;
11098;SDS011;12223;42.650;23.364;2024-02-15T23:22:43;12.02;;;6.05;;
11098;SDS011;12223;42.650;23.364;2024-02-15T23:25:09;12.48;;;6.70;;
11098;SDS011;12223;42.650;23.364;2024-02-15T23:27:35;13.95;;;7.03;;
11098;SDS011;12223;42.650;23.364;2024-02-15T23:30:01;10.07;;;6.38;;
11098;SDS011;12223;42.650;23.364;2024-02-15T23:32:28;13.70;;;7.03;;
11098;SDS011;12223;42.650;23.364;2024-02-15T23:34:55;13.38;;;6.82;;
11098;SDS011;12223;42.650;23.364;2024-02-15T23:37:20;14.18;;;6.85;;
11098;SDS011;12223;42.650;23.364;2024-02-15T23:42:47;16.08;;;6.55;;
11098;SDS011;12223;42.650;23.364;2024-02-15T23:45:17;14.73;;;7.13;;
11098;SDS011;12223;42.650;23.364;2024-02-15T23:47:42;15.20;;;6.80;;
11098;SDS011;12223;42.650;23.364;2024-02-15T23:50:08;15.57;;;8.00;;
11098;SDS011;12223;42.650;23.364;2024-02-15T23:52:41;16.48;;;6.95;;
11098;SDS011;12223;42.650;23.364;2024-02-15T23:55:08;14.23;;;7.18;;
11098;SDS011;12223;42.650;23.364;2024-02-15T23:57:35;13.98;;;6.47;;
